Terminal Aerodrome Forecast
Issued by NWS

Home | Current Version | Previous Version | Text Only | Print | Product List | Glossary On
Versions: 1 2 3 4 5 6 7 8 9 10 11 12 13 14 15 16 17 18 19 20 21 22 23 24 25 26 27
000
FTUS46 KMTR 260300 AAA
TAFSFO
TAF AMD
KSFO 260302Z 2603/2706 29010KT P6SM FEW200
     FM260800 28006KT P6SM FEW008
     FM261900 30010KT P6SM SKC
     FM262100 29017KT P6SM SKC
     FM270400 28008KT P6SM FEW008=

USA.gov is the U.S. government's official web portal to all federal, state and local government web resources and services.